createdAt,value
2018-08-04T00:02:11.803Z,99.90
2018-08-04T00:04:40.585Z,99.90
2018-08-04T00:07:09.426Z,99.90
2018-08-04T00:09:38.237Z,99.90
2018-08-04T00:12:07.134Z,99.90
2018-08-04T00:14:35.937Z,99.90
2018-08-04T00:17:04.871Z,99.90
2018-08-04T00:19:33.629Z,99.90
2018-08-04T00:22:02.420Z,99.90
2018-08-04T00:24:31.205Z,99.90
2018-08-04T00:26:59.995Z,99.90
2018-08-04T00:29:28.774Z,99.90
2018-08-04T00:31:57.578Z,99.90
2018-08-04T00:34:26.365Z,99.90
2018-08-04T00:36:55.137Z,99.90
2018-08-04T00:39:23.934Z,99.90
2018-08-04T00:41:52.725Z,99.90
2018-08-04T00:44:21.514Z,99.90
2018-08-04T00:46:50.302Z,99.90
2018-08-04T00:49:19.146Z,99.90
2018-08-04T00:51:48.006Z,99.90
2018-08-04T00:54:16.808Z,99.90
2018-08-04T00:56:45.582Z,99.90
2018-08-04T00:59:14.303Z,99.90
2018-08-04T01:01:43.365Z,99.90
2018-08-04T01:04:12.170Z,99.90
2018-08-04T01:06:41.009Z,99.90
2018-08-04T01:09:10.565Z,99.90
2018-08-04T01:11:39.685Z,99.90
2018-08-04T01:14:08.513Z,99.90
2018-08-04T01:16:37.326Z,99.90
2018-08-04T01:19:06.133Z,99.90
2018-08-04T01:21:34.898Z,99.90
2018-08-04T01:24:03.662Z,99.90
2018-08-04T01:26:32.442Z,99.90
2018-08-04T01:29:01.246Z,99.90
2018-08-04T01:31:30.034Z,99.90
2018-08-04T01:33:58.864Z,99.90
2018-08-04T01:36:27.623Z,99.90
2018-08-04T01:38:56.498Z,99.90
2018-08-04T01:41:25.268Z,99.90
2018-08-04T01:43:54.046Z,99.90
2018-08-04T01:46:22.817Z,99.90
2018-08-04T01:48:51.591Z,99.90
2018-08-04T01:51:20.354Z,99.90
2018-08-04T01:53:49.135Z,99.90
2018-08-04T01:56:17.935Z,99.90
2018-08-04T01:58:46.698Z,99.90
2018-08-04T02:01:15.558Z,99.90
2018-08-04T02:03:44.442Z,99.90
2018-08-04T02:06:13.242Z,99.90
2018-08-04T02:08:42.018Z,99.90
2018-08-04T02:11:10.910Z,99.90
2018-08-04T02:13:39.694Z,99.90
2018-08-04T02:16:08.498Z,99.90
2018-08-04T02:18:37.278Z,99.90
2018-08-04T02:21:06.092Z,99.90
2018-08-04T02:23:34.879Z,99.90
2018-08-04T02:26:03.665Z,99.90
2018-08-04T02:28:32.430Z,99.90
2018-08-04T02:31:01.230Z,99.90
2018-08-04T02:33:30.123Z,99.90
2018-08-04T02:35:58.958Z,99.90
2018-08-04T02:38:27.738Z,99.90
2018-08-04T02:40:56.514Z,99.90
2018-08-04T02:43:25.291Z,99.90
2018-08-04T02:45:54.058Z,99.90
2018-08-04T02:48:22.844Z,99.90
2018-08-04T02:50:51.619Z,99.90
2018-08-04T02:53:20.410Z,99.90
2018-08-04T02:55:49.450Z,99.90
2018-08-04T02:58:18.214Z,99.90
2018-08-04T03:00:47.143Z,99.90
2018-08-04T03:03:15.899Z,99.90
2018-08-04T03:05:44.719Z,99.90
2018-08-04T03:08:13.547Z,99.90
2018-08-04T03:10:42.301Z,99.90
2018-08-04T03:13:11.042Z,99.90
2018-08-04T03:15:39.834Z,99.90
2018-08-04T03:18:08.606Z,99.90
2018-08-04T03:20:37.371Z,99.90
2018-08-04T03:23:06.142Z,99.90
2018-08-04T03:25:34.941Z,99.90
2018-08-04T03:28:03.710Z,99.90
2018-08-04T03:30:32.480Z,99.90
2018-08-04T03:33:01.262Z,99.90
2018-08-04T03:35:36.430Z,99.90
2018-08-04T03:38:05.215Z,99.90
2018-08-04T03:40:33.983Z,99.90
2018-08-04T03:43:02.791Z,99.90
2018-08-04T03:45:31.614Z,99.90
2018-08-04T03:48:00.378Z,99.90
2018-08-04T03:50:29.222Z,99.90
2018-08-04T03:52:57.956Z,99.90
2018-08-04T03:55:26.761Z,99.90
2018-08-04T03:57:55.537Z,99.90
2018-08-04T04:00:24.310Z,99.90
2018-08-04T04:02:53.097Z,99.90
2018-08-04T04:05:21.942Z,99.90
2018-08-04T04:07:50.742Z,99.90
2018-08-04T04:10:19.582Z,99.90
2018-08-04T04:12:48.465Z,99.90
2018-08-04T04:15:17.289Z,99.90
2018-08-04T04:17:47.886Z,99.90
2018-08-04T04:20:18.434Z,99.90
2018-08-04T04:22:47.306Z,99.90
2018-08-04T04:25:16.077Z,99.90
2018-08-04T04:27:45.094Z,99.90
2018-08-04T04:30:14.665Z,99.90
2018-08-04T04:32:43.486Z,99.90
2018-08-04T04:35:12.266Z,99.90
2018-08-04T04:37:41.026Z,99.90
2018-08-04T04:40:09.947Z,99.90
2018-08-04T04:42:38.746Z,99.90
2018-08-04T04:45:07.556Z,99.90
2018-08-04T04:47:36.332Z,99.90
2018-08-04T04:50:05.218Z,99.90
2018-08-04T04:52:34.034Z,99.90
2018-08-04T04:55:02.848Z,99.90
2018-08-04T04:57:31.906Z,99.90
2018-08-04T05:00:00.810Z,99.90
2018-08-04T05:02:29.570Z,99.90
2018-08-04T05:04:58.335Z,99.90
2018-08-04T05:07:27.114Z,99.90
2018-08-04T05:09:55.897Z,99.90
2018-08-04T05:12:24.735Z,99.90
2018-08-04T05:14:53.476Z,99.90
2018-08-04T05:17:22.298Z,99.90
2018-08-04T05:19:51.082Z,99.90
2018-08-04T05:22:19.846Z,99.90
2018-08-04T05:24:48.619Z,99.90
2018-08-04T05:27:17.462Z,99.90
2018-08-04T05:29:46.253Z,99.90
2018-08-04T05:32:15.036Z,99.90
2018-08-04T05:34:43.927Z,99.90
2018-08-04T05:37:12.670Z,99.90
2018-08-04T05:39:41.450Z,99.90
2018-08-04T05:42:10.254Z,99.90
2018-08-04T05:44:39.035Z,99.90
2018-08-04T05:47:07.839Z,99.90
2018-08-04T05:49:36.647Z,99.90
2018-08-04T05:52:05.707Z,99.90
2018-08-04T05:54:34.450Z,99.90
2018-08-04T05:57:03.297Z,99.90
2018-08-04T05:59:32.092Z,99.90
2018-08-04T06:02:00.924Z,99.90
2018-08-04T06:04:30.002Z,99.90
2018-08-04T06:06:58.805Z,99.90
2018-08-04T06:09:27.576Z,99.90
2018-08-04T06:11:56.346Z,99.90
2018-08-04T06:14:25.077Z,99.90
2018-08-04T06:16:53.873Z,99.90
2018-08-04T06:19:22.631Z,99.90
2018-08-04T06:21:51.406Z,99.90
2018-08-04T06:24:20.184Z,99.90
2018-08-04T06:26:48.977Z,99.90
2018-08-04T06:29:17.850Z,99.90
2018-08-04T06:31:46.622Z,99.90
2018-08-04T06:34:15.391Z,99.90
2018-08-04T06:36:44.181Z,99.90
2018-08-04T06:39:13.002Z,99.90
2018-08-04T06:41:41.832Z,99.90
2018-08-04T06:44:10.620Z,99.90
2018-08-04T06:46:39.396Z,99.90
2018-08-04T06:49:08.304Z,99.90
2018-08-04T06:51:37.134Z,99.90
2018-08-04T06:54:06.117Z,99.90
2018-08-04T06:56:34.906Z,99.90
2018-08-04T06:59:03.776Z,99.90
2018-08-04T07:01:32.766Z,99.90
2018-08-04T07:04:01.560Z,99.90
2018-08-04T07:06:30.331Z,99.90
2018-08-04T07:08:59.165Z,99.90
2018-08-04T07:11:27.966Z,99.90
2018-08-04T07:13:56.859Z,99.90
2018-08-04T07:16:25.621Z,99.90
2018-08-04T07:18:54.438Z,99.90
2018-08-04T07:21:23.252Z,99.90
2018-08-04T07:23:52.055Z,99.90
2018-08-04T07:26:20.869Z,99.90
2018-08-04T07:28:49.730Z,99.90
2018-08-04T07:31:18.438Z,99.90
2018-08-04T07:33:47.328Z,99.90
2018-08-04T07:36:16.137Z,99.90
2018-08-04T07:38:44.904Z,99.90
2018-08-04T07:41:13.906Z,99.90
2018-08-04T07:43:42.706Z,99.90
2018-08-04T07:46:11.618Z,99.90
2018-08-04T07:48:40.504Z,99.90
2018-08-04T07:51:09.320Z,99.90
2018-08-04T07:53:38.153Z,99.90
2018-08-04T07:56:06.935Z,99.90
2018-08-04T07:58:35.974Z,99.90
2018-08-04T08:01:04.813Z,99.90
2018-08-04T08:03:33.592Z,99.90
2018-08-04T08:06:02.394Z,99.90
2018-08-04T08:08:31.187Z,99.90
2018-08-04T08:11:00.033Z,99.90
2018-08-04T08:13:29.081Z,99.90
2018-08-04T08:15:57.878Z,99.90
2018-08-04T08:18:26.657Z,99.90
2018-08-04T08:20:55.466Z,99.90
2018-08-04T08:23:24.271Z,99.90
2018-08-04T08:26:04.664Z,99.90
2018-08-04T08:28:33.498Z,99.90
2018-08-04T08:31:02.286Z,99.90
2018-08-04T08:33:31.289Z,99.90
2018-08-04T08:36:00.145Z,99.90
2018-08-04T08:38:30.120Z,99.90
2018-08-04T08:40:59.294Z,99.90
2018-08-04T08:43:28.697Z,99.90
2018-08-04T08:45:57.912Z,99.90
2018-08-04T08:48:26.804Z,99.90
2018-08-04T08:50:55.594Z,99.90
2018-08-04T08:53:24.972Z,99.90
2018-08-04T08:55:53.986Z,99.90
2018-08-04T08:58:22.762Z,99.90
2018-08-04T09:00:51.590Z,99.90
2018-08-04T09:03:20.423Z,99.90
2018-08-04T09:05:49.241Z,99.90
2018-08-04T09:08:18.042Z,99.90
2018-08-04T09:10:46.842Z,99.90
2018-08-04T09:13:15.627Z,99.90
2018-08-04T09:15:44.446Z,99.90
2018-08-04T09:18:13.224Z,99.90
2018-08-04T09:20:42.033Z,99.90
2018-08-04T09:23:10.822Z,99.90
2018-08-04T09:25:39.639Z,99.90
2018-08-04T09:28:08.437Z,99.90
2018-08-04T09:30:37.223Z,99.90
2018-08-04T09:33:06.407Z,99.90
2018-08-04T09:35:35.214Z,99.90
2018-08-04T09:38:04.092Z,99.90
2018-08-04T09:40:33.246Z,99.90
2018-08-04T09:43:02.161Z,99.90
2018-08-04T09:45:30.953Z,99.90
2018-08-04T09:48:00.071Z,99.90
2018-08-04T09:50:28.890Z,99.90
2018-08-04T09:52:57.723Z,99.90
2018-08-04T09:55:26.518Z,99.90
2018-08-04T09:57:55.318Z,99.90
2018-08-04T10:01:31.103Z,99.90
2018-08-04T10:03:59.977Z,99.90
2018-08-04T10:08:57.166Z,99.90
2018-08-04T10:11:26.038Z,99.90
2018-08-04T10:13:54.808Z,99.90
2018-08-04T10:16:26.653Z,99.90
2018-08-04T10:19:01.810Z,99.90
2018-08-04T10:21:30.606Z,99.90
2018-08-04T10:23:59.753Z,99.90
2018-08-04T10:26:29.386Z,99.90
2018-08-04T10:28:58.170Z,99.90
2018-08-04T10:31:27.002Z,99.90
2018-08-04T10:33:55.762Z,99.90
2018-08-04T10:36:24.610Z,99.90
2018-08-04T10:38:53.422Z,99.90
2018-08-04T10:41:22.226Z,99.90
2018-08-04T10:43:51.047Z,99.90
2018-08-04T10:46:19.834Z,99.90
2018-08-04T10:48:48.644Z,99.90
2018-08-04T10:51:17.455Z,99.90
2018-08-04T10:53:46.293Z,99.90
2018-08-04T10:56:15.085Z,99.90
2018-08-04T10:58:43.909Z,99.90
2018-08-04T11:01:12.717Z,99.90
2018-08-04T11:03:41.561Z,99.90
2018-08-04T11:06:10.330Z,99.90
2018-08-04T11:08:39.108Z,99.90
2018-08-04T11:11:08.254Z,99.90
2018-08-04T11:13:37.057Z,99.90
2018-08-04T11:16:06.026Z,99.90
2018-08-04T11:18:34.833Z,99.90
2018-08-04T11:21:03.674Z,99.90
2018-08-04T11:23:32.700Z,99.90
2018-08-04T11:26:01.502Z,99.90
2018-08-04T11:28:30.314Z,99.90
2018-08-04T11:30:59.225Z,99.90
2018-08-04T11:33:27.981Z,99.90
2018-08-04T11:35:56.826Z,99.90
2018-08-04T11:38:25.979Z,99.90
2018-08-04T11:40:54.770Z,99.90
2018-08-04T11:43:23.551Z,99.90
2018-08-04T11:45:52.334Z,99.90
2018-08-04T11:48:21.106Z,99.90
2018-08-04T11:50:49.928Z,99.90
2018-08-04T11:53:18.714Z,99.90
2018-08-04T11:55:47.506Z,99.90
2018-08-04T11:58:16.280Z,99.90
2018-08-04T12:00:45.050Z,99.90
2018-08-04T12:03:13.834Z,99.90
2018-08-04T12:05:42.625Z,99.90
2018-08-04T12:08:11.398Z,99.90
2018-08-04T12:10:40.197Z,99.90
2018-08-04T12:13:08.994Z,99.90
2018-08-04T12:15:37.810Z,99.90
2018-08-04T12:18:06.685Z,99.90
2018-08-04T12:20:35.473Z,99.90
2018-08-04T12:23:04.610Z,99.90
2018-08-04T12:25:33.427Z,99.90
2018-08-04T12:28:02.234Z,99.90
2018-08-04T12:30:31.367Z,99.90
2018-08-04T12:33:00.170Z,99.90
2018-08-04T12:35:29.423Z,99.90
2018-08-04T12:37:58.247Z,99.90
2018-08-04T12:40:27.211Z,99.90
2018-08-04T12:42:56.041Z,99.90
2018-08-04T12:45:25.163Z,99.90
2018-08-04T12:47:54.211Z,99.90
2018-08-04T12:50:23.010Z,99.90
2018-08-04T12:52:52.094Z,98.50
2018-08-04T12:55:20.915Z,98.30
2018-08-04T12:57:49.718Z,99.90
2018-08-04T13:00:18.498Z,98.80
2018-08-04T13:02:47.368Z,98.80
2018-08-04T13:05:16.146Z,98.40
2018-08-04T13:07:44.966Z,97.40
2018-08-04T13:10:14.393Z,96.20
2018-08-04T13:12:43.350Z,96.90
2018-08-04T13:15:12.146Z,97.60
2018-08-04T13:17:40.943Z,97.40
2018-08-04T13:20:09.730Z,97.00
2018-08-04T13:22:38.507Z,95.60
2018-08-04T13:25:07.598Z,94.70
2018-08-04T13:27:36.397Z,93.80
2018-08-04T13:30:05.489Z,92.60
2018-08-04T13:32:34.594Z,91.80
2018-08-04T13:35:03.387Z,91.50
2018-08-04T13:37:32.255Z,92.00
2018-08-04T13:40:01.053Z,91.80
2018-08-04T13:42:29.894Z,91.60
2018-08-04T13:44:58.750Z,91.90
2018-08-04T13:47:33.819Z,92.70
2018-08-04T13:50:02.638Z,92.40
2018-08-04T13:52:31.414Z,92.30
2018-08-04T13:55:00.246Z,91.60
2018-08-04T13:57:29.029Z,93.00
2018-08-04T13:59:58.126Z,92.70
2018-08-04T14:02:26.954Z,93.50
2018-08-04T14:04:55.770Z,91.70
2018-08-04T14:07:24.850Z,91.90
2018-08-04T14:09:53.672Z,92.60
2018-08-04T14:12:22.470Z,93.10
2018-08-04T14:14:51.295Z,92.30
2018-08-04T14:17:20.099Z,91.70
2018-08-04T14:19:48.854Z,92.70
2018-08-04T14:22:23.898Z,92.60
2018-08-04T14:24:52.680Z,90.10
2018-08-04T14:27:21.534Z,90.90
2018-08-04T14:29:50.324Z,91.70
2018-08-04T14:32:19.150Z,91.50
2018-08-04T14:34:47.942Z,92.00
2018-08-04T14:37:16.770Z,93.50
2018-08-04T14:39:45.538Z,93.00
2018-08-04T14:42:14.308Z,92.00
2018-08-04T14:44:43.085Z,92.40
2018-08-04T14:47:11.857Z,92.50
2018-08-04T14:49:40.701Z,92.90
2018-08-04T14:52:09.489Z,92.80
2018-08-04T14:54:38.327Z,92.20
2018-08-04T14:57:07.119Z,92.20
2018-08-04T14:59:35.890Z,91.90
2018-08-04T15:02:04.782Z,93.60
2018-08-04T15:04:33.747Z,93.50
2018-08-04T15:07:02.583Z,93.10
2018-08-04T15:09:31.395Z,92.20
2018-08-04T15:12:00.190Z,92.20
2018-08-04T15:14:28.961Z,91.40
2018-08-04T15:16:57.774Z,90.80
2018-08-04T15:19:26.543Z,91.00
2018-08-04T15:21:55.346Z,90.00
2018-08-04T15:24:24.165Z,90.00
2018-08-04T15:26:52.923Z,89.80
2018-08-04T15:29:21.717Z,87.50
2018-08-04T15:31:50.511Z,86.10
2018-08-04T15:34:19.240Z,87.00
2018-08-04T15:36:48.015Z,86.80
2018-08-04T15:39:16.806Z,85.50
2018-08-04T15:41:45.643Z,86.80
2018-08-04T15:44:14.446Z,89.00
2018-08-04T15:46:43.238Z,90.40
2018-08-04T15:49:12.015Z,92.20
2018-08-04T15:51:40.845Z,93.70
2018-08-04T15:54:09.734Z,93.70
2018-08-04T15:56:38.521Z,93.70
2018-08-04T15:59:07.407Z,92.90
2018-08-04T16:01:36.182Z,91.80
2018-08-04T16:04:05.104Z,91.00
2018-08-04T16:06:34.012Z,90.90
2018-08-04T16:09:02.889Z,91.30
2018-08-04T16:11:31.648Z,91.20
2018-08-04T16:14:00.418Z,91.10
2018-08-04T16:16:29.536Z,90.90
2018-08-04T16:18:58.286Z,90.80
2018-08-04T16:21:27.082Z,91.90
2018-08-04T16:23:56.110Z,91.80
2018-08-04T16:26:24.894Z,92.10
2018-08-04T16:28:53.657Z,92.20
2018-08-04T16:31:22.462Z,92.40
2018-08-04T16:33:51.250Z,93.80
2018-08-04T16:36:20.046Z,94.50
2018-08-04T16:38:48.818Z,95.50
2018-08-04T16:41:17.691Z,96.20
2018-08-04T16:43:46.495Z,96.70
2018-08-04T16:46:15.274Z,96.70
2018-08-04T16:48:44.035Z,97.10
2018-08-04T16:51:12.860Z,97.40
2018-08-04T16:53:41.650Z,97.80
2018-08-04T16:56:10.554Z,98.00
2018-08-04T16:58:39.354Z,97.90
2018-08-04T17:01:08.190Z,98.10
2018-08-04T17:03:36.966Z,98.40
2018-08-04T17:06:05.865Z,98.60
2018-08-04T17:08:34.754Z,98.90
2018-08-04T17:11:03.738Z,99.00
2018-08-04T17:13:33.634Z,98.80
2018-08-04T17:16:02.518Z,98.90
2018-08-04T17:18:31.394Z,98.90
2018-08-04T17:21:00.164Z,99.00
2018-08-04T17:23:29.006Z,98.90
2018-08-04T17:25:57.935Z,99.50
2018-08-04T17:28:26.706Z,99.90
2018-08-04T17:30:55.477Z,99.90
2018-08-04T17:33:24.279Z,99.90
2018-08-04T17:35:53.063Z,99.90
2018-08-04T17:38:22.153Z,99.90
2018-08-04T17:40:50.950Z,99.90
2018-08-04T17:43:20.098Z,99.90
2018-08-04T17:45:48.921Z,99.90
2018-08-04T17:48:17.702Z,99.90
2018-08-04T17:50:46.527Z,99.90
2018-08-04T17:53:15.334Z,99.90
2018-08-04T17:55:44.469Z,99.90
2018-08-04T17:58:13.549Z,99.90
2018-08-04T18:00:43.064Z,99.90
2018-08-04T18:03:12.139Z,99.90
2018-08-04T18:05:41.246Z,99.90
2018-08-04T18:10:39.222Z,99.90
2018-08-04T18:13:08.442Z,99.90
2018-08-04T18:15:37.523Z,99.90
2018-08-04T18:18:07.547Z,99.90
2018-08-04T18:20:36.518Z,99.90
2018-08-04T18:25:34.189Z,99.90
2018-08-04T18:28:03.159Z,99.90
2018-08-04T18:30:32.296Z,99.90
2018-08-04T18:33:01.595Z,99.90
2018-08-04T18:35:30.986Z,99.90
2018-08-04T18:37:59.996Z,99.90
2018-08-04T18:40:29.079Z,99.90
2018-08-04T18:42:58.597Z,99.90
2018-08-04T18:45:27.804Z,99.90
2018-08-04T18:47:56.890Z,99.90
2018-08-04T18:50:25.979Z,99.90
2018-08-04T18:52:55.174Z,99.90
2018-08-04T18:55:24.250Z,99.90
2018-08-04T18:57:53.795Z,99.90
2018-08-04T19:00:22.866Z,99.90
2018-08-04T19:02:52.047Z,99.90
2018-08-04T19:05:21.146Z,99.90
2018-08-04T19:07:50.254Z,99.90
2018-08-04T19:10:19.261Z,99.90
2018-08-04T19:12:48.526Z,99.90
2018-08-04T19:15:17.526Z,99.90
2018-08-04T19:17:47.646Z,99.90
2018-08-04T19:20:17.154Z,99.90
2018-08-04T19:22:46.265Z,99.90
2018-08-04T19:25:15.079Z,99.90
2018-08-04T19:27:43.907Z,99.90
2018-08-04T19:30:13.040Z,99.90
2018-08-04T19:32:42.351Z,99.90
2018-08-04T19:35:11.162Z,99.90
2018-08-04T19:37:40.618Z,99.90
2018-08-04T19:40:09.536Z,99.90
2018-08-04T19:42:38.350Z,99.90
2018-08-04T19:45:07.150Z,99.90
2018-08-04T19:47:35.914Z,99.90
2018-08-04T19:50:04.896Z,99.90
2018-08-04T19:52:33.938Z,99.90
2018-08-04T19:55:02.725Z,99.90
2018-08-04T19:57:31.526Z,99.90
2018-08-04T20:00:00.332Z,99.90
2018-08-04T20:02:29.170Z,99.90
2018-08-04T20:04:57.959Z,99.90
2018-08-04T20:07:26.774Z,99.90
2018-08-04T20:09:55.532Z,99.90
2018-08-04T20:12:24.589Z,99.90
2018-08-04T20:14:53.686Z,99.90
2018-08-04T20:17:22.506Z,99.90
2018-08-04T20:19:51.289Z,99.90
2018-08-04T20:22:20.072Z,99.90
2018-08-04T20:24:48.846Z,99.90
2018-08-04T20:27:17.633Z,99.90
2018-08-04T20:29:46.422Z,99.90
2018-08-04T20:32:15.214Z,99.90
2018-08-04T20:34:44.322Z,99.90
2018-08-04T20:37:13.142Z,99.90
2018-08-04T20:39:41.938Z,99.90
2018-08-04T20:42:10.781Z,99.90
2018-08-04T20:44:39.569Z,99.90
2018-08-04T20:47:08.365Z,99.90
2018-08-04T20:49:37.195Z,99.90
2018-08-04T20:52:06.355Z,99.90
2018-08-04T20:54:35.122Z,99.90
2018-08-04T20:57:04.194Z,99.90
2018-08-04T20:59:33.246Z,99.90
2018-08-04T21:02:03.601Z,99.90
2018-08-04T21:04:33.636Z,99.90
2018-08-04T21:07:03.138Z,99.90
2018-08-04T21:09:32.274Z,99.90
2018-08-04T21:12:01.421Z,99.90
2018-08-04T21:14:30.534Z,99.90
2018-08-04T21:17:00.024Z,99.90
2018-08-04T21:19:28.878Z,99.90
2018-08-04T21:21:57.674Z,99.90
2018-08-04T21:24:27.051Z,99.90
2018-08-04T21:26:56.395Z,99.90
2018-08-04T21:29:25.423Z,99.90
2018-08-04T21:31:54.574Z,99.90
2018-08-04T21:34:23.354Z,99.90
2018-08-04T21:36:52.162Z,99.90
2018-08-04T21:39:21.563Z,99.90
2018-08-04T21:41:50.329Z,99.90
2018-08-04T21:44:19.191Z,99.90
2018-08-04T21:46:50.238Z,99.90
2018-08-04T21:49:19.540Z,99.90
2018-08-04T21:51:49.550Z,99.90
2018-08-04T21:54:19.919Z,99.90
2018-08-04T21:56:48.403Z,99.90
2018-08-04T21:59:17.183Z,99.90
2018-08-04T22:01:51.337Z,99.90
2018-08-04T22:04:20.106Z,99.90
2018-08-04T22:07:01.898Z,99.90
2018-08-04T22:09:30.715Z,99.90
2018-08-04T22:11:59.847Z,99.90
2018-08-04T22:14:28.622Z,99.90
2018-08-04T22:16:57.410Z,99.90
2018-08-04T22:19:26.185Z,99.90
2018-08-04T22:21:55.003Z,99.90
2018-08-04T22:24:23.822Z,99.90
2018-08-04T22:26:52.597Z,99.90
2018-08-04T22:29:21.378Z,99.90
2018-08-04T22:31:50.166Z,99.90
2018-08-04T22:34:18.954Z,99.90
2018-08-04T22:36:47.729Z,99.90
2018-08-04T22:39:16.521Z,99.90
2018-08-04T22:41:45.331Z,99.90
2018-08-04T22:44:14.147Z,99.90
2018-08-04T22:46:42.963Z,99.90
2018-08-04T22:49:11.774Z,99.90
2018-08-04T22:51:40.554Z,99.90
2018-08-04T22:54:09.337Z,99.90
2018-08-04T22:56:38.044Z,99.90
2018-08-04T22:59:06.832Z,99.90
2018-08-04T23:01:35.605Z,99.90
2018-08-04T23:04:04.420Z,99.90
2018-08-04T23:06:33.214Z,99.90
2018-08-04T23:09:02.002Z,99.90
2018-08-04T23:11:30.758Z,99.90
2018-08-04T23:13:59.538Z,99.90
2018-08-04T23:16:28.363Z,99.90
2018-08-04T23:18:57.154Z,99.90
2018-08-04T23:21:25.962Z,99.90
2018-08-04T23:23:54.762Z,99.90
2018-08-04T23:26:23.571Z,99.90
2018-08-04T23:28:52.352Z,99.90
2018-08-04T23:31:21.125Z,99.90
2018-08-04T23:33:49.886Z,99.90
2018-08-04T23:36:18.646Z,99.90
2018-08-04T23:38:47.467Z,99.90
2018-08-04T23:41:16.274Z,99.90
2018-08-04T23:43:45.087Z,99.90
2018-08-04T23:46:13.898Z,99.90
2018-08-04T23:48:42.686Z,99.90
2018-08-04T23:51:11.512Z,99.90
2018-08-04T23:53:40.367Z,99.90
2018-08-04T23:56:09.134Z,99.90
2018-08-04T23:58:37.934Z,99.90
